Time;durP1;ratioP1;P1;durP2;ratioP2;P2;SDS_P1;SDS_P2;PMS_P1;PMS_P2;Temp;Humidity;BMP_temperature;BMP_pressure;BME280_temperature;BME280_humidity;BME280_pressure;Samples;Min_cycle;Max_cycle;Signal;HPM_P1;HPM_P2
2023/09/20 00:00:15;;;;;;;3.67;2.60;;;;;;;17.78;78.39;93709.44;528434;28;864;-41
2023/09/20 00:00:32;;;;;;;3.80;2.70;;;;;;;17.79;78.31;93711.63;528446;28;808;-42
2023/09/20 00:00:55;;;;;;;3.15;2.50;;;;;;;17.77;78.42;93708.69;528480;28;828;-41
2023/09/20 00:01:12;;;;;;;2.67;2.10;;;;;;;17.80;78.25;93712.38;528403;28;912;-41
2023/09/20 00:01:27;;;;;;;2.45;1.88;;;;;;;17.79;78.30;93711.63;528463;28;915;-41
2023/09/20 00:01:43;;;;;;;2.40;2.20;;;;;;;17.80;78.21;93713.09;528427;28;1103;-41
2023/09/20 00:01:58;;;;;;;2.17;2.07;;;;;;;17.79;78.34;93711.63;528397;28;1129;-41
2023/09/20 00:02:13;;;;;;;2.15;1.92;;;;;;;17.53;78.17;93676.25;528473;28;816;-41
2023/09/20 00:02:29;;;;;;;2.77;2.10;;;;;;;17.80;78.15;93715.16;528492;28;851;-41
2023/09/20 00:02:49;;;;;;;2.33;2.10;;;;;;;17.80;78.43;93713.09;528452;28;805;-41
2023/09/20 00:03:05;;;;;;;2.33;2.10;;;;;;;17.81;78.29;93716.63;528393;27;1013;-41
2023/09/20 00:03:20;;;;;;;2.40;2.10;;;;;;;17.81;78.28;93722.19;528393;28;911;-41
2023/09/20 00:03:35;;;;;;;3.30;1.90;;;;;;;17.81;78.45;93711.78;528454;28;847;-41
2023/09/20 00:03:51;;;;;;;3.65;2.17;;;;;;;17.81;78.43;93708.97;528403;28;927;-41
2023/09/20 00:04:07;;;;;;;2.37;2.17;;;;;;;17.81;78.22;93717.34;528494;28;860;-41
2023/09/20 00:04:22;;;;;;;2.20;2.00;;;;;;;17.82;78.19;93713.22;528344;28;923;-41
2023/09/20 00:04:38;;;;;;;2.27;2.07;;;;;;;17.82;78.26;93710.44;528423;28;959;-41
2023/09/20 00:04:53;;;;;;;2.33;2.13;;;;;;;17.83;78.15;93714.72;528439;28;900;-41
2023/09/20 00:05:14;;;;;;;2.90;2.15;;;;;;;17.83;77.74;93717.50;528363;27;797;-41
2023/09/20 00:05:30;;;;;;;3.20;2.08;;;;;;;17.83;77.77;93714.72;528425;27;912;-41
2023/09/20 00:05:49;;;;;;;2.20;1.70;;;;;;;17.79;77.48;93708.84;528518;28;813;-41
2023/09/20 00:06:09;;;;;;;2.42;1.70;;;;;;;17.83;77.42;93716.75;528178;28;993;-41
2023/09/20 00:06:24;;;;;;;5.20;2.22;;;;;;;17.83;77.40;93713.97;528286;28;829;-41
2023/09/20 00:06:40;;;;;;;3.80;2.10;;;;;;;17.83;77.38;93713.97;528232;28;955;-41
2023/09/20 00:06:56;;;;;;;2.20;1.95;;;;;;;17.81;77.44;93714.56;528229;28;975;-41
2023/09/20 00:07:12;;;;;;;2.20;1.95;;;;;;;17.81;77.43;93714.56;528230;28;1629;-41
2023/09/20 00:07:27;;;;;;;1.95;1.80;;;;;;;17.82;77.58;93718.81;528247;28;865;-41
2023/09/20 00:07:42;;;;;;;2.20;2.00;;;;;;;17.81;77.62;93722.94;528247;28;854;-41
2023/09/20 00:07:58;;;;;;;2.37;2.17;;;;;;;17.80;77.60;93713.09;528333;28;1251;-41
2023/09/20 00:08:14;;;;;;;2.30;2.10;;;;;;;17.80;77.53;93720.75;528433;28;915;-41
2023/09/20 00:08:29;;;;;;;2.15;1.88;;;;;;;17.79;77.46;93711.63;528434;28;867;-41
2023/09/20 00:08:45;;;;;;;1.93;1.67;;;;;;;17.78;77.52;93721.31;528455;28;805;-41
2023/09/20 00:09:00;;;;;;;2.13;1.73;;;;;;;17.78;77.38;93720.59;528415;28;895;-41
2023/09/20 00:09:17;;;;;;;2.33;1.98;;;;;;;17.77;77.42;93719.88;528413;28;828;-41
2023/09/20 00:09:32;;;;;;;2.20;2.00;;;;;;;17.78;77.39;93720.59;528307;28;860;-41
2023/09/20 00:09:48;;;;;;;2.17;1.98;;;;;;;17.77;77.46;93721.91;528357;28;974;-41
2023/09/20 00:10:04;;;;;;;2.10;1.90;;;;;;;17.76;77.34;93715.59;528478;28;796;-41
2023/09/20 00:10:21;;;;;;;2.20;1.88;;;;;;;17.74;77.49;93721.03;528463;28;876;-41
2023/09/20 00:10:37;;;;;;;2.22;1.83;;;;;;;17.73;77.32;93719.59;528464;28;859;-41
2023/09/20 00:10:52;;;;;;;1.98;1.67;;;;;;;17.73;77.21;93714.00;528386;28;888;-41
2023/09/20 00:11:15;;;;;;;2.60;1.90;;;;;;;17.72;77.26;93706.94;528472;28;809;-41
2023/09/20 00:11:30;;;;;;;2.45;2.22;;;;;;;17.70;77.25;93712.38;528423;28;896;-41
2023/09/20 00:11:46;;;;;;;2.55;2.35;;;;;;;17.72;77.46;93717.34;528471;28;824;-41
2023/09/20 00:12:02;;;;;;;2.28;2.00;;;;;;;17.72;77.45;93717.34;528335;28;964;-41
2023/09/20 00:12:17;;;;;;;2.80;1.98;;;;;;;17.72;77.63;93711.78;528417;28;903;-41
2023/09/20 00:12:33;;;;;;;2.85;2.13;;;;;;;17.71;77.83;93715.91;526378;28;1243;-41
2023/09/20 00:12:48;;;;;;;2.23;1.87;;;;;;;17.70;77.80;93717.22;526301;28;939;-41
2023/09/20 00:13:04;;;;;;;2.80;1.95;;;;;;;17.71;77.89;93725.03;526291;28;864;-41
2023/09/20 00:13:19;;;;;;;3.07;2.10;;;;;;;17.70;77.95;93711.63;526343;28;845;-41
2023/09/20 00:13:35;;;;;;;3.30;2.10;;;;;;;17.70;77.84;93715.16;526336;28;860;-41
2023/09/20 00:13:50;;;;;;;3.42;1.73;;;;;;;17.72;77.95;93711.78;526357;28;848;-41
2023/09/20 00:14:06;;;;;;;2.13;1.90;;;;;;;17.71;77.90;93713.13;526363;28;927;-41
2023/09/20 00:14:21;;;;;;;2.60;2.40;;;;;;;17.71;77.95;93713.13;526210;28;822;-41
2023/09/20 00:14:37;;;;;;;2.13;1.93;;;;;;;17.71;78.08;93718.69;526286;28;861;-41
2023/09/20 00:14:52;;;;;;;2.10;1.90;;;;;;;17.58;77.95;93691.97;526276;28;1673;-41
2023/09/20 00:15:09;;;;;;;2.35;2.15;;;;;;;17.70;77.72;93717.22;526291;28;849;-41
2023/09/20 00:15:24;;;;;;;2.03;1.83;;;;;;;17.70;77.58;93717.94;526329;28;802;-41
2023/09/20 00:15:43;;;;;;;2.38;1.85;;;;;;;17.70;77.58;93720.75;526284;28;907;-41
2023/09/20 00:15:58;;;;;;;3.20;2.22;;;;;;;17.70;77.84;93720.75;526309;28;860;-41
2023/09/20 00:16:14;;;;;;;2.40;1.90;;;;;;;17.69;77.73;93713.72;526273;28;881;-41
2023/09/20 00:16:29;;;;;;;2.08;1.65;;;;;;;17.68;77.75;93709.44;526339;28;856;-41
2023/09/20 00:16:45;;;;;;;2.70;1.80;;;;;;;17.69;77.71;93712.97;526258;28;1286;-41
2023/09/20 00:17:00;;;;;;;2.37;1.80;;;;;;;17.39;77.40;93666.81;526346;28;988;-41
2023/09/20 00:17:16;;;;;;;1.90;1.80;;;;;;;17.69;77.47;93713.72;526315;28;812;-41
2023/09/20 00:17:34;;;;;;;2.00;1.80;;;;;;;17.69;77.76;93719.28;526312;28;837;-41
2023/09/20 00:17:49;;;;;;;2.13;2.00;;;;;;;17.70;77.63;93708.84;526219;28;912;-41
2023/09/20 00:18:04;;;;;;;2.10;2.00;;;;;;;17.69;77.50;93716.50;526278;28;821;-41
2023/09/20 00:18:22;;;;;;;2.00;1.80;;;;;;;17.69;77.54;93713.72;526241;28;931;-41
2023/09/20 00:18:38;;;;;;;3.90;1.77;;;;;;;17.69;77.35;93719.28;526300;28;942;-41
2023/09/20 00:18:53;;;;;;;4.13;1.87;;;;;;;17.68;77.15;93712.22;526325;28;958;-41
2023/09/20 00:19:08;;;;;;;2.47;1.90;;;;;;;17.69;77.21;93710.19;526294;28;915;-41
2023/09/20 00:19:24;;;;;;;2.67;1.83;;;;;;;17.68;77.07;93714.28;526242;28;1030;-41
2023/09/20 00:19:42;;;;;;;2.80;2.07;;;;;;;17.68;76.88;93709.44;526180;28;831;-41
2023/09/20 00:19:57;;;;;;;2.25;2.05;;;;;;;17.68;76.98;93712.22;526326;28;958;-41
2023/09/20 00:20:13;;;;;;;2.70;2.20;;;;;;;17.68;77.02;93708.69;526280;28;955;-41
2023/09/20 00:20:28;;;;;;;2.43;2.10;;;;;;;17.68;77.20;93714.28;526261;28;837;-41
2023/09/20 00:20:44;;;;;;;2.08;1.88;;;;;;;17.67;77.15;93705.16;526269;28;890;-41
2023/09/20 00:21:01;;;;;;;2.10;1.90;;;;;;;17.67;77.10;93713.53;526298;28;804;-41
2023/09/20 00:21:16;;;;;;;9.50;1.98;;;;;;;17.65;76.92;93713.41;526308;28;904;-41
2023/09/20 00:21:32;;;;;;;8.18;1.67;;;;;;;17.66;77.02;93716.94;526315;28;874;-41
2023/09/20 00:21:47;;;;;;;1.87;1.63;;;;;;;17.65;77.05;93716.19;526312;28;892;-41
2023/09/20 00:22:02;;;;;;;2.53;1.90;;;;;;;17.66;77.05;93708.56;526319;28;825;-41
2023/09/20 00:22:18;;;;;;;2.55;1.80;;;;;;;17.65;77.05;93713.41;526286;28;1038;-41
2023/09/20 00:22:34;;;;;;;2.20;1.70;;;;;;;17.66;76.94;93712.09;526280;28;841;-41
2023/09/20 00:22:50;;;;;;;2.20;1.80;;;;;;;17.64;77.14;93709.16;526274;28;1914;-41
2023/09/20 00:23:05;;;;;;;2.15;1.88;;;;;;;17.66;77.11;93712.09;526333;28;872;-41
2023/09/20 00:23:21;;;;;;;2.83;2.10;;;;;;;17.65;77.18;93707.09;526252;28;869;-41
2023/09/20 00:23:37;;;;;;;2.00;1.80;;;;;;;17.61;76.99;93698.41;526388;28;801;-41
2023/09/20 00:23:52;;;;;;;1.90;1.63;;;;;;;17.65;77.15;93707.09;526126;28;832;-41
2023/09/20 00:24:07;;;;;;;3.30;1.90;;;;;;;17.65;77.10;93709.88;526115;28;1150;-41
2023/09/20 00:24:23;;;;;;;3.13;1.90;;;;;;;17.65;77.28;93716.19;526127;28;1161;-41
2023/09/20 00:24:38;;;;;;;3.00;1.80;;;;;;;17.64;77.21;93711.19;526025;28;952;-41
2023/09/20 00:24:55;;;;;;;2.73;1.93;;;;;;;17.63;77.23;93712.53;526176;28;860;-41
2023/09/20 00:25:12;;;;;;;2.13;1.65;;;;;;;17.63;77.07;93709.75;526052;28;941;-41
2023/09/20 00:25:27;;;;;;;1.50;1.40;;;;;;;17.62;77.06;93713.84;526085;28;923;-41
2023/09/20 00:25:42;;;;;;;2.00;1.77;;;;;;;17.62;76.81;93713.84;526158;28;1656;-41
2023/09/20 00:25:58;;;;;;;2.07;1.73;;;;;;;17.60;76.78;93711.66;526360;28;825;-41
2023/09/20 00:26:13;;;;;;;2.13;1.90;;;;;;;17.59;76.60;93710.16;526279;28;1244;-41
2023/09/20 00:26:28;;;;;;;2.50;2.10;;;;;;;17.60;76.57;93705.31;527904;28;1096;-41
2023/09/20 00:26:44;;;;;;;2.07;1.80;;;;;;;17.59;76.69;93720.59;528432;28;789;-41
2023/09/20 00:26:59;;;;;;;2.15;1.70;;;;;;;17.58;76.51;93711.50;528338;28;889;-41
2023/09/20 00:27:15;;;;;;;2.33;1.80;;;;;;;17.58;76.41;93714.31;526427;28;1188;-41
2023/09/20 00:27:30;;;;;;;2.03;1.80;;;;;;;17.57;76.59;93712.06;526311;28;814;-41
2023/09/20 00:27:46;;;;;;;1.93;1.80;;;;;;;17.55;76.74;93709.88;526185;28;1379;-42
2023/09/20 00:28:02;;;;;;;1.97;1.80;;;;;;;17.56;76.47;93716.94;526265;28;819;-41
2023/09/20 00:28:17;;;;;;;1.85;1.65;;;;;;;17.56;76.58;93716.22;526269;28;896;-41
2023/09/20 00:28:33;;;;;;;2.67;1.83;;;;;;;17.55;76.80;93715.47;526268;28;817;-41
2023/09/20 00:28:48;;;;;;;3.83;2.07;;;;;;;17.55;76.83;93715.47;526313;28;938;-41
2023/09/20 00:29:05;;;;;;;3.40;1.90;;;;;;;17.54;77.06;93714.00;526313;28;813;-41
2023/09/20 00:29:24;;;;;;;2.45;1.83;;;;;;;17.54;77.00;93711.22;526253;28;987;-41
2023/09/20 00:29:39;;;;;;;2.17;1.98;;;;;;;17.53;76.98;93712.53;526184;28;865;-41
2023/09/20 00:29:55;;;;;;;2.13;1.93;;;;;;;17.53;77.00;93712.53;526300;28;836;-41
2023/09/20 00:30:14;;;;;;;2.03;1.90;;;;;;;17.53;77.33;93712.53;527517;28;1109;-41
2023/09/20 00:30:29;;;;;;;1.90;1.70;;;;;;;17.53;77.41;93712.53;528424;28;912;-41
2023/09/20 00:30:47;;;;;;;2.17;1.73;;;;;;;17.53;77.26;93712.53;528359;28;1038;-41
2023/09/20 00:31:03;;;;;;;1.65;1.55;;;;;;;17.53;77.36;93718.13;528128;28;2148;-41
2023/09/20 00:31:18;;;;;;;1.70;1.50;;;;;;;17.52;77.28;93711.03;528217;28;844;-41
2023/09/20 00:31:34;;;;;;;2.13;1.90;;;;;;;17.53;77.30;93709.00;527966;28;794;-41
2023/09/20 00:31:49;;;;;;;1.92;1.77;;;;;;;17.52;77.39;93716.63;527936;28;871;-41
2023/09/20 00:32:05;;;;;;;1.80;1.60;;;;;;;17.52;77.39;93713.84;527910;28;873;-41
2023/09/20 00:32:20;;;;;;;2.17;1.98;;;;;;;17.52;77.44;93719.44;528136;28;782;-41
2023/09/20 00:32:42;;;;;;;2.13;1.80;;;;;;;17.52;77.53;93722.22;528205;28;1338;-41
2023/09/20 00:33:01;;;;;;;2.28;1.80;;;;;;;17.52;77.57;93719.44;528276;28;1760;-41
2023/09/20 00:33:16;;;;;;;2.30;2.10;;;;;;;17.52;77.45;93713.84;528393;28;797;-41
2023/09/20 00:33:32;;;;;;;2.20;2.00;;;;;;;17.52;77.50;93722.22;528399;27;868;-41
2023/09/20 00:33:49;;;;;;;2.00;1.80;;;;;;;17.52;77.46;93719.44;528344;28;1476;-41
2023/09/20 00:34:04;;;;;;;1.88;1.70;;;;;;;17.53;77.42;93717.38;528344;28;915;-41
2023/09/20 00:34:20;;;;;;;1.93;1.73;;;;;;;17.50;77.52;93716.47;528376;28;1025;-41
2023/09/20 00:34:35;;;;;;;2.60;1.90;;;;;;;17.50;77.60;93708.13;528356;27;1034;-41
2023/09/20 00:34:51;;;;;;;3.00;1.80;;;;;;;17.49;77.72;93717.78;528268;28;812;-41
2023/09/20 00:35:08;;;;;;;2.58;1.52;;;;;;;17.50;77.65;93724.88;528379;28;882;-41
2023/09/20 00:35:23;;;;;;;1.70;1.60;;;;;;;17.50;77.77;93715.75;528344;27;892;-41
2023/09/20 00:35:42;;;;;;;2.00;1.80;;;;;;;17.49;77.81;93717.78;528427;28;875;-41
2023/09/20 00:35:57;;;;;;;2.47;1.98;;;;;;;17.50;77.86;93718.53;528309;28;1089;-41
2023/09/20 00:36:19;;;;;;;2.67;2.00;;;;;;;17.51;77.79;93717.22;528366;28;816;-41
2023/09/20 00:36:34;;;;;;;2.65;2.00;;;;;;;17.49;78.03;93712.22;528354;28;827;-41
2023/09/20 00:36:49;;;;;;;2.13;1.92;;;;;;;17.49;77.96;93715.00;528348;28;959;-41
2023/09/20 00:37:05;;;;;;;2.10;1.90;;;;;;;17.50;77.86;93715.75;528388;28;903;-41
2023/09/20 00:37:21;;;;;;;2.17;1.80;;;;;;;17.50;77.68;93715.75;528418;27;820;-41
2023/09/20 00:37:41;;;;;;;2.13;1.60;;;;;;;17.47;77.47;93708.53;528340;28;935;-41
2023/09/20 00:37:57;;;;;;;1.65;1.55;;;;;;;17.51;77.37;93720.03;528406;28;852;-41
2023/09/20 00:38:14;;;;;;;2.03;1.80;;;;;;;17.51;76.91;93711.66;528390;27;935;-41
2023/09/20 00:38:30;;;;;;;2.08;1.77;;;;;;;17.50;76.90;93713.69;528322;28;931;-41
2023/09/20 00:38:45;;;;;;;2.10;1.80;;;;;;;17.50;76.97;93716.47;528355;28;942;-41
2023/09/20 00:39:00;;;;;;;2.07;1.77;;;;;;;17.50;76.83;93718.53;528296;28;829;-41
2023/09/20 00:39:17;;;;;;;2.42;1.60;;;;;;;17.50;76.72;93710.16;528452;28;856;-41
2023/09/20 00:39:32;;;;;;;2.22;1.75;;;;;;;17.50;76.60;93710.16;528389;28;908;-41
2023/09/20 00:39:48;;;;;;;2.17;1.97;;;;;;;17.49;76.66;93712.22;528390;28;840;-41
2023/09/20 00:40:03;;;;;;;1.92;1.75;;;;;;;17.49;76.74;93715.00;528316;28;902;-41
2023/09/20 00:40:21;;;;;;;1.95;1.58;;;;;;;17.49;76.50;93708.69;528380;28;821;-41
2023/09/20 00:40:37;;;;;;;2.60;1.70;;;;;;;17.49;76.53;93705.88;528360;28;896;-41
2023/09/20 00:40:52;;;;;;;1.63;1.50;;;;;;;17.49;76.62;93711.47;528390;28;907;-41
2023/09/20 00:41:08;;;;;;;1.60;1.50;;;;;;;17.49;76.55;93708.69;528341;28;1225;-41
2023/09/20 00:41:23;;;;;;;1.65;1.55;;;;;;;17.48;76.55;93710.72;528418;28;871;-41
2023/09/20 00:41:39;;;;;;;2.00;1.80;;;;;;;17.47;76.33;93709.28;528326;27;1160;-41
2023/09/20 00:41:54;;;;;;;1.80;1.60;;;;;;;17.47;76.47;93709.28;528388;28;801;-41
2023/09/20 00:42:09;;;;;;;1.70;1.60;;;;;;;17.47;76.48;93716.91;528360;28;848;-41
2023/09/20 00:42:27;;;;;;;1.98;1.88;;;;;;;17.47;76.32;93708.53;528434;28;844;-41
2023/09/20 00:42:45;;;;;;;2.03;1.83;;;;;;;17.47;76.30;93709.28;528352;28;872;-41
2023/09/20 00:43:04;;;;;;;2.30;1.92;;;;;;;17.48;76.25;93715.59;528302;28;1981;-41
2023/09/20 00:43:24;;;;;;;1.92;1.80;;;;;;;17.48;76.28;93710.03;528287;27;866;-41
2023/09/20 00:43:39;;;;;;;2.47;1.67;;;;;;;17.47;76.33;93714.88;528400;28;1138;-41
2023/09/20 00:43:54;;;;;;;1.90;1.30;;;;;;;17.48;76.24;93715.59;528352;28;948;-41
2023/09/20 00:44:10;;;;;;;2.07;1.63;;;;;;;17.48;76.25;93712.81;528335;28;900;-41
2023/09/20 00:44:25;;;;;;;3.22;2.08;;;;;;;17.48;76.03;93710.03;528401;28;843;-41
2023/09/20 00:44:41;;;;;;;2.60;1.83;;;;;;;17.48;76.07;93712.81;528314;27;825;-41
2023/09/20 00:44:56;;;;;;;2.23;1.60;;;;;;;17.48;76.38;93712.81;528315;28;883;-41
2023/09/20 00:45:15;;;;;;;2.30;1.77;;;;;;;17.48;76.16;93713.53;528380;28;781;-41
2023/09/20 00:45:31;;;;;;;2.00;1.83;;;;;;;17.47;76.03;93712.06;528301;28;813;-41
2023/09/20 00:45:47;;;;;;;2.00;1.77;;;;;;;17.28;75.85;93684.88;528349;28;848;-41
2023/09/20 00:46:04;;;;;;;1.97;1.83;;;;;;;17.36;75.74;93701.50;528093;28;2602;-41
2023/09/20 00:46:24;;;;;;;2.10;1.85;;;;;;;17.47;75.89;93708.53;526105;28;848;-41
2023/09/20 00:46:39;;;;;;;2.50;1.60;;;;;;;17.45;75.87;93709.84;526108;28;813;-41
2023/09/20 00:46:55;;;;;;;1.70;1.60;;;;;;;17.45;76.07;93709.84;526056;28;1149;-41
2023/09/20 00:47:11;;;;;;;1.70;1.60;;;;;;;17.45;76.06;93709.13;523946;28;894;-41
2023/09/20 00:47:27;;;;;;;1.80;1.70;;;;;;;17.45;75.90;93718.22;523976;28;1092;-41
2023/09/20 00:47:44;;;;;;;1.97;1.80;;;;;;;17.45;75.78;93714.72;523928;28;869;-41
2023/09/20 00:48:02;;;;;;;3.00;1.90;;;;;;;17.44;75.75;93716.03;525619;28;968;-41
2023/09/20 00:48:17;;;;;;;2.38;1.63;;;;;;;17.43;75.87;93715.28;527815;28;862;-41
2023/09/20 00:48:33;;;;;;;1.75;1.65;;;;;;;17.44;75.93;93716.03;528140;28;956;-41
2023/09/20 00:48:50;;;;;;;1.73;1.60;;;;;;;17.44;75.98;93716.03;528099;28;1686;-41
2023/09/20 00:49:06;;;;;;;1.63;1.50;;;;;;;17.43;76.10;93709.69;528267;28;929;-41
2023/09/20 00:49:24;;;;;;;1.50;1.40;;;;;;;17.42;75.87;93713.81;528311;28;793;-41
2023/09/20 00:49:41;;;;;;;1.50;1.30;;;;;;;17.44;75.96;93713.97;528369;28;883;-41
2023/09/20 00:49:56;;;;;;;1.55;1.45;;;;;;;17.42;75.90;93715.88;528381;28;887;-41
2023/09/20 00:50:12;;;;;;;1.80;1.70;;;;;;;17.42;75.85;93716.63;528176;28;794;-41
2023/09/20 00:50:31;;;;;;;2.08;1.83;;;;;;;17.44;75.73;93716.03;528186;28;778;-41
2023/09/20 00:50:48;;;;;;;2.53;1.77;;;;;;;17.42;75.43;93713.09;528176;28;908;-41
2023/09/20 00:51:03;;;;;;;1.60;1.50;;;;;;;17.41;75.46;93711.63;528180;28;929;-41
2023/09/20 00:51:21;;;;;;;1.50;1.40;;;;;;;17.41;75.74;93717.22;526101;28;809;-41
2023/09/20 00:51:37;;;;;;;1.67;1.58;;;;;;;17.41;75.41;93717.22;523949;28;913;-41
2023/09/20 00:51:53;;;;;;;2.60;1.48;;;;;;;17.41;75.44;93720.00;524004;28;801;-41
2023/09/20 00:52:10;;;;;;;2.55;1.50;;;;;;;17.39;75.62;93709.41;523409;28;889;-41
2023/09/20 00:52:27;;;;;;;1.55;1.45;;;;;;;17.40;75.42;93722.06;524048;28;829;-41
2023/09/20 00:52:45;;;;;;;1.90;1.40;;;;;;;17.40;75.33;93718.53;521753;28;2460;-41
2023/09/20 00:53:00;;;;;;;1.65;1.20;;;;;;;17.38;75.29;93716.31;519928;28;848;-41
2023/09/20 00:53:16;;;;;;;1.40;1.30;;;;;;;17.39;75.30;93717.03;519851;28;891;-41
2023/09/20 00:53:34;;;;;;;1.77;1.45;;;;;;;17.37;75.18;93717.63;521463;28;818;-41
2023/09/20 00:53:55;;;;;;;2.90;1.55;;;;;;;17.34;75.39;93712.50;519837;28;869;-41
2023/09/20 00:54:11;;;;;;;2.50;1.73;;;;;;;17.35;75.41;93717.50;521875;28;1156;-41
2023/09/20 00:54:27;;;;;;;2.05;1.77;;;;;;;17.34;75.36;93716.03;521954;28;775;-41
2023/09/20 00:54:42;;;;;;;2.47;1.70;;;;;;;17.02;75.52;93673.88;523983;28;829;-41
2023/09/20 00:54:58;;;;;;;2.17;1.50;;;;;;;17.31;75.67;93719.25;523465;28;865;-41
2023/09/20 00:55:20;;;;;;;1.50;1.30;;;;;;;17.31;75.71;93711.63;523945;28;974;-41
2023/09/20 00:55:36;;;;;;;1.83;1.73;;;;;;;17.31;75.76;93720.00;524082;28;920;-41
2023/09/20 00:55:53;;;;;;;2.40;1.90;;;;;;;17.30;75.58;93717.78;523969;28;834;-41
2023/09/20 00:56:12;;;;;;;2.13;1.65;;;;;;;17.30;75.80;93726.16;523976;28;821;-41
2023/09/20 00:56:27;;;;;;;2.35;1.92;;;;;;;17.30;76.06;93720.59;523997;28;956;-41
2023/09/20 00:56:43;;;;;;;2.10;1.90;;;;;;;17.30;75.97;93723.38;523970;28;820;-41
2023/09/20 00:56:58;;;;;;;1.67;1.57;;;;;;;17.29;76.01;93722.63;526030;28;801;-41
2023/09/20 00:57:14;;;;;;;1.92;1.75;;;;;;;17.29;75.67;93713.53;523880;28;837;-41
2023/09/20 00:57:29;;;;;;;2.43;2.00;;;;;;;17.29;75.55;93710.72;523993;28;789;-41
2023/09/20 00:57:50;;;;;;;3.13;1.80;;;;;;;17.30;75.79;93723.38;522820;28;2567;-41
2023/09/20 00:58:14;;;;;;;3.20;1.70;;;;;;;17.28;75.82;93717.66;522382;28;880;-41
2023/09/20 00:58:29;;;;;;;2.42;1.50;;;;;;;17.27;75.81;93716.91;521946;28;884;-41
2023/09/20 00:58:45;;;;;;;3.03;1.52;;;;;;;17.28;75.99;93720.44;521907;28;852;-41
2023/09/20 00:59:06;;;;;;;1.80;1.60;;;;;;;17.28;76.14;93723.22;521994;28;945;-41
2023/09/20 00:59:22;;;;;;;1.80;1.67;;;;;;;17.27;76.12;93716.91;524796;28;845;-41
2023/09/20 00:59:39;;;;;;;1.77;1.67;;;;;;;17.28;76.18;93714.84;526088;28;916;-41
2023/09/20 00:59:55;;;;;;;3.28;1.58;;;;;;;17.28;76.07;93718.38;526167;28;872;-41
2023/09/20 01:00:21;;;;;;;2.47;1.60;;;;;;;17.27;75.96;93716.91;525958;28;866;-41
2023/09/20 01:00:43;;;;;;;2.47;1.70;;;;;;;17.28;75.91;93720.44;523939;28;884;-41
2023/09/20 01:01:00;;;;;;;2.95;1.65;;;;;;;17.23;75.99;93719.41;523932;28;893;-41
2023/09/20 01:01:16;;;;;;;2.35;1.58;;;;;;;17.26;75.89;93721.00;521849;28;893;-41
2023/09/20 01:01:31;;;;;;;1.97;1.37;;;;;;;17.27;76.12;93725.28;521867;28;876;-41
2023/09/20 01:01:46;;;;;;;1.70;1.33;;;;;;;17.27;75.97;93719.69;521901;28;874;-41
2023/09/20 01:02:02;;;;;;;1.43;1.33;;;;;;;17.11;75.73;93692.63;522655;28;920;-41
2023/09/20 01:02:18;;;;;;;1.48;1.30;;;;;;;17.28;75.57;93723.22;524587;28;884;-41
2023/09/20 01:02:34;;;;;;;1.85;1.50;;;;;;;17.28;75.70;93723.22;526017;28;897;-41
2023/09/20 01:02:51;;;;;;;2.42;1.80;;;;;;;17.26;75.50;93718.22;523942;28;869;-41
2023/09/20 01:03:07;;;;;;;1.75;1.42;;;;;;;17.27;75.20;93721.75;524883;28;873;-41
2023/09/20 01:03:24;;;;;;;1.30;1.20;;;;;;;17.17;74.83;93707.06;525978;28;805;-41
2023/09/20 01:03:40;;;;;;;1.40;1.23;;;;;;;17.26;74.67;93728.66;526055;28;833;-41
2023/09/20 01:03:55;;;;;;;1.70;1.27;;;;;;;17.25;74.46;93713.22;523974;28;932;-41
2023/09/20 01:04:11;;;;;;;2.00;1.30;;;;;;;17.22;74.40;93722.75;523904;28;897;-41
2023/09/20 01:04:28;;;;;;;2.15;1.30;;;;;;;17.23;74.30;93718.66;523931;28;924;-41
2023/09/20 01:04:43;;;;;;;1.42;1.30;;;;;;;17.22;74.36;93722.75;525022;28;873;-41
2023/09/20 01:04:59;;;;;;;1.27;1.17;;;;;;;17.22;74.14;93722.75;523904;28;881;-41
2023/09/20 01:05:15;;;;;;;1.20;1.10;;;;;;;17.21;74.24;93722.06;523855;28;980;-41
2023/09/20 01:05:37;;;;;;;1.50;1.20;;;;;;;17.21;74.49;93726.88;521776;28;1070;-41
2023/09/20 01:05:52;;;;;;;1.40;1.30;;;;;;;17.21;74.64;93726.88;523402;28;901;-41
2023/09/20 01:06:09;;;;;;;1.50;1.40;;;;;;;17.19;74.61;93723.94;523930;28;845;-41
2023/09/20 01:06:26;;;;;;;3.10;1.45;;;;;;;17.18;74.65;93728.06;523914;28;865;-41
2023/09/20 01:06:46;;;;;;;3.55;1.50;;;;;;;17.09;74.64;93709.25;523869;28;936;-41
2023/09/20 01:07:01;;;;;;;3.97;1.67;;;;;;;17.17;74.58;93726.59;526074;28;924;-41
2023/09/20 01:07:18;;;;;;;3.40;1.50;;;;;;;17.16;74.73;93722.31;526003;28;845;-41
2023/09/20 01:07:33;;;;;;;1.70;1.50;;;;;;;17.15;74.75;93729.94;525990;28;1175;-41
2023/09/20 01:07:59;;;;;;;1.63;1.53;;;;;;;17.16;74.71;93722.31;525973;28;864;-41
2023/09/20 01:08:19;;;;;;;1.67;1.50;;;;;;;17.03;74.85;93706.00;525996;28;848;-41
2023/09/20 01:08:34;;;;;;;2.33;1.83;;;;;;;17.14;74.84;93725.72;526015;28;813;-41
2023/09/20 01:08:50;;;;;;;2.87;1.67;;;;;;;17.13;74.92;93720.72;526067;28;789;-41
2023/09/20 01:09:05;;;;;;;1.98;1.48;;;;;;;17.14;74.73;93722.91;526053;28;804;-41
2023/09/20 01:09:22;;;;;;;1.30;1.20;;;;;;;17.12;74.72;93722.78;526053;28;860;-41
2023/09/20 01:09:39;;;;;;;1.30;1.20;;;;;;;17.11;74.65;93718.50;526179;28;876;-41
2023/09/20 01:09:55;;;;;;;1.58;1.30;;;;;;;17.11;74.58;93721.28;526186;28;869;-41
2023/09/20 01:10:10;;;;;;;1.63;1.30;;;;;;;17.10;74.62;93719.81;526168;28;873;-41
2023/09/20 01:10:26;;;;;;;1.20;1.10;;;;;;;17.10;74.58;93721.88;526223;28;852;-41
2023/09/20 01:10:42;;;;;;;1.20;1.10;;;;;;;17.09;74.78;93723.19;526159;28;1010;-41
2023/09/20 01:10:59;;;;;;;1.30;1.17;;;;;;;17.08;74.75;93713.38;526200;28;897;-41
2023/09/20 01:11:15;;;;;;;1.42;1.20;;;;;;;17.08;74.76;93721.72;525966;28;958;-41
2023/09/20 01:11:30;;;;;;;1.40;1.30;;;;;;;17.08;74.67;93716.91;526035;28;786;-41
2023/09/20 01:11:46;;;;;;;1.73;1.60;;;;;;;17.07;74.68;93718.19;526053;28;881;-41
2023/09/20 01:12:02;;;;;;;5.60;1.80;;;;;;;17.08;74.76;93721.72;526020;28;766;-41
2023/09/20 01:12:17;;;;;;;5.78;1.77;;;;;;;17.08;74.88;93718.94;526048;28;822;-41
2023/09/20 01:12:33;;;;;;;2.37;1.67;;;;;;;17.08;74.73;93718.94;527994;28;1113;-41
2023/09/20 01:12:54;;;;;;;2.45;1.58;;;;;;;17.08;74.82;93719.69;528113;28;877;-41
2023/09/20 01:13:10;;;;;;;4.75;1.80;;;;;;;17.08;74.68;93718.94;528253;28;841;-41
2023/09/20 01:13:25;;;;;;;3.47;1.73;;;;;;;17.09;74.75;93723.19;528042;28;940;-41
2023/09/20 01:13:40;;;;;;;3.80;1.70;;;;;;;17.09;74.68;93720.41;528089;28;872;-41
2023/09/20 01:13:59;;;;;;;4.07;1.63;;;;;;;17.08;74.58;93719.69;528203;28;852;-41
2023/09/20 01:14:14;;;;;;;1.60;1.50;;;;;;;17.07;74.68;93715.41;528035;28;1669;-41
2023/09/20 01:14:29;;;;;;;1.63;1.52;;;;;;;17.06;74.45;93716.00;528180;28;884;-41
2023/09/20 01:14:45;;;;;;;1.70;1.60;;;;;;;17.06;74.50;93716.00;525992;28;936;-41
2023/09/20 01:15:01;;;;;;;2.05;1.77;;;;;;;17.06;74.31;93719.53;526015;28;1071;-41
2023/09/20 01:15:16;;;;;;;1.70;1.60;;;;;;;16.88;74.17;93687.50;526589;28;1497;-41
2023/09/20 01:15:33;;;;;;;1.55;1.45;;;;;;;17.04;74.04;93707.50;528082;28;904;-41
2023/09/20 01:15:48;;;;;;;1.48;1.38;;;;;;;17.03;74.35;93714.38;528119;28;904;-41
2023/09/20 01:16:04;;;;;;;1.17;1.10;;;;;;;17.03;74.21;93715.13;528157;28;868;-41
2023/09/20 01:16:19;;;;;;;1.30;1.20;;;;;;;17.02;74.22;93710.13;528135;28;837;-41
2023/09/20 01:16:36;;;;;;;1.40;1.30;;;;;;;17.00;74.09;93705.13;528194;28;813;-41
2023/09/20 01:16:53;;;;;;;1.30;1.20;;;;;;;17.00;74.14;93709.97;528277;28;1003;-41
2023/09/20 01:17:10;;;;;;;1.50;1.40;;;;;;;17.00;74.24;93713.47;528279;28;876;-41
2023/09/20 01:17:26;;;;;;;1.98;1.75;;;;;;;17.01;74.22;93712.19;528328;28;884;-41
2023/09/20 01:17:45;;;;;;;1.57;1.47;;;;;;;17.01;74.25;93708.66;528306;28;907;-41
2023/09/20 01:18:02;;;;;;;1.30;1.20;;;;;;;17.01;74.26;93711.44;528076;28;883;-41
2023/09/20 01:18:18;;;;;;;1.42;1.30;;;;;;;17.00;74.21;93710.69;528166;28;891;-41
2023/09/20 01:18:34;;;;;;;1.65;1.50;;;;;;;17.00;74.31;93707.19;528134;28;1016;-41
2023/09/20 01:18:50;;;;;;;1.67;1.42;;;;;;;16.98;74.20;93707.75;528125;28;913;-41
2023/09/20 01:19:06;;;;;;;2.08;1.48;;;;;;;17.00;74.29;93718.34;528072;28;921;-41
2023/09/20 01:19:21;;;;;;;1.88;1.52;;;;;;;16.98;74.17;93704.97;528087;28;825;-41
2023/09/20 01:19:37;;;;;;;1.40;1.30;;;;;;;16.97;74.06;93709.09;527978;28;940;-41
2023/09/20 01:19:53;;;;;;;1.33;1.23;;;;;;;16.97;73.90;93713.94;528173;28;904;-41
2023/09/20 01:20:12;;;;;;;1.60;1.27;;;;;;;16.96;73.86;93712.44;528242;28;805;-41